Aviation Digital Data Service (ADDS)

Output produced by TAFs form (2210 UTC 18 October 2017)
found at http://www.aviationweather.gov/adds/tafs/
 
KTUS 181724Z 1818/1918 VRB04KT P6SM FEW110 SCT250 
     FM182100 31008KT P6SM SCT250 
     FM190300 24005KT P6SM SCT250 
     FM190700 15007KT P6SM FEW110 SCT250